Aeroporto :
LOGIN :

Iscrizione | Disclaimer

   EN    FR    IT 

 










Sommario :    VFR   VFR Marginale   IFR   IFR Intensivo   IFR Molto Intensivo
Visibilità : 
Base nubi : 
>= 8 km
>= 3000ft
5 / 8 km
1000 / 3000 ft
1500m / 5 km
500 / 1000 ft
800 / 1500m
200 / 500 ft
< 800m
< 200 ft
Simboli :   Temporali  Nebbia  Neve Forte  Precipitazioni Forti  Vento > 20 kt
SIGMETs :   Varie  Temporali  Ghiacco  Turbolenza  Onda orograficha  Ceneri Vulcaniche






- Altitudine del aeroporto : 313 ft
- Codice IATA : LEH


LFOH - Le Havre Octeville

ULTIMO METAR :
  • 140700Z AUTO 27023KT 9999 FEW031/// SCT044/// BKN076/// ///TCU 09/04 Q0995 TEMPO 28025G40KT SHRA BECMG BKN030

METARs OBSOLETI :
  • 140630Z AUTO 27021G31KT 9999 FEW038 OVC086 09/05 Q0995 TEMPO SHRA
  • 140600Z AUTO 28022G35KT CAVOK 09/04 Q0994
  • 140530Z AUTO 29027G40KT 9999 BKN037 BKN047 09/04 Q0994
  • 140500Z AUTO 29028G41KT 9999 BKN038 OVC044 09/02 Q0993
  • 140430Z AUTO 29032G43KT 260V320 9999 BKN036 OVC043 09/04 Q0992

TAF TAF LFOH
Valido dal 14 a 06 ore il 15 a 06 ore UTC


140500Z 1406/1506 28020KT 9999 BKN030
TEMPO 1406/1415 28025G40KT SHRA
BECMG 1415/1418 20020KT
TEMPO 1420/1423 RA BKN013
TEMPO 1423/1506 25025G35KT SHRA BKN030TCU
TEMPO 1502/1504 25030G45KT
ATIS : +33 2 35 54 64 93



MetMap, La meteo Aeronautica in un colpo d'occhio ! - Copyright ORBIFLY Dicembre 2007 - Disclaimer

ORBIFLY MET'MAP TEAM :

Programmazione e sviluppo : Alexandra Zaïnal
Concezione : Baudouin d'Aumeries
Aiuto per la programmazione : Marc-Olivier Méhu
Supporto tecnico e logistico : Manuel Goepfert
Aiuto per la traduzione : Arnaldo La Scala

Contatto : metmap@orbifly.com




FONTI E CREDITI :

   NOAA